createdAt,value
2022-08-27T00:00:17.061Z,9.50
2022-08-27T00:02:44.218Z,8.23
2022-08-27T00:05:12.567Z,7.32
2022-08-27T00:07:40.641Z,6.77
2022-08-27T00:10:10.876Z,8.23
2022-08-27T00:12:38.011Z,9.65
2022-08-27T00:15:06.929Z,8.30
2022-08-27T00:17:35.259Z,11.20
2022-08-27T00:20:02.727Z,7.63
2022-08-27T00:22:29.408Z,8.68
2022-08-27T00:24:55.991Z,7.05
2022-08-27T00:27:22.686Z,8.50
2022-08-27T00:29:49.670Z,7.03
2022-08-27T00:32:17.158Z,9.63
2022-08-27T00:34:43.854Z,8.65
2022-08-27T00:37:10.968Z,7.40
2022-08-27T00:39:37.558Z,8.85
2022-08-27T00:42:05.862Z,11.45
2022-08-27T00:44:32.696Z,8.40
2022-08-27T00:47:04.189Z,7.03
2022-08-27T00:49:46.947Z,8.80
2022-08-27T00:52:25.739Z,7.15
2022-08-27T00:54:56.954Z,9.52
2022-08-27T00:57:24.039Z,10.03
2022-08-27T00:59:50.885Z,9.05
2022-08-27T01:02:20.199Z,7.78
2022-08-27T01:05:01.433Z,9.80
2022-08-27T01:07:31.949Z,6.60
2022-08-27T01:10:01.116Z,10.80
2022-08-27T01:12:30.428Z,6.30
2022-08-27T01:14:57.444Z,7.35
2022-08-27T01:17:24.960Z,5.93
2022-08-27T01:19:56.842Z,10.60
2022-08-27T01:23:01.024Z,8.57
2022-08-27T01:25:29.215Z,8.45
2022-08-27T01:28:00.590Z,10.50
2022-08-27T01:30:27.826Z,9.95
2022-08-27T01:32:55.762Z,8.13
2022-08-27T01:35:23.640Z,8.53
2022-08-27T01:37:53.709Z,9.70
2022-08-27T01:40:24.044Z,10.02
2022-08-27T01:42:55.661Z,9.60
2022-08-27T01:45:26.191Z,9.90
2022-08-27T01:47:53.252Z,8.90
2022-08-27T01:50:24.460Z,8.15
2022-08-27T01:52:52.087Z,9.10
2022-08-27T01:55:22.712Z,9.73
2022-08-27T01:57:49.720Z,11.38
2022-08-27T02:00:23.748Z,10.43
2022-08-27T02:02:50.810Z,8.43
2022-08-27T02:05:18.303Z,13.10
2022-08-27T02:07:45.488Z,11.95
2022-08-27T02:10:17.560Z,7.80
2022-08-27T02:12:44.237Z,7.33
2022-08-27T02:15:12.246Z,9.05
2022-08-27T02:17:38.898Z,8.10
2022-08-27T02:20:09.291Z,8.25
2022-08-27T02:22:35.948Z,9.40
2022-08-27T02:25:02.664Z,10.10
2022-08-27T02:27:29.463Z,10.80
2022-08-27T02:29:56.103Z,8.68
2022-08-27T02:32:31.887Z,11.35
2022-08-27T02:34:59.404Z,10.00
2022-08-27T02:37:26.962Z,11.70
2022-08-27T02:39:54.340Z,7.53
2022-08-27T02:42:21.060Z,9.50
2022-08-27T02:44:48.038Z,12.85
2022-08-27T02:47:15.463Z,11.73
2022-08-27T02:49:42.499Z,11.20
2022-08-27T02:52:09.248Z,8.70
2022-08-27T02:54:35.837Z,10.73
2022-08-27T02:57:02.478Z,10.30
2022-08-27T02:59:29.096Z,10.65
2022-08-27T03:01:55.900Z,8.67
2022-08-27T03:04:23.849Z,7.75
2022-08-27T03:06:50.571Z,10.40
2022-08-27T03:09:17.184Z,8.77
2022-08-27T03:11:43.796Z,9.23
2022-08-27T03:14:10.397Z,8.70
2022-08-27T03:16:38.111Z,9.20
2022-08-27T03:19:07.311Z,13.65
2022-08-27T03:21:35.488Z,9.23
2022-08-27T03:24:09.440Z,10.27
2022-08-27T03:26:41.281Z,8.50
2022-08-27T03:29:08.032Z,10.35
2022-08-27T03:31:34.899Z,9.55
2022-08-27T03:34:06.766Z,9.35
2022-08-27T03:36:34.000Z,8.63
2022-08-27T03:39:00.681Z,8.20
2022-08-27T03:41:45.462Z,11.95
2022-08-27T03:44:21.449Z,9.50
2022-08-27T03:46:48.825Z,10.23
2022-08-27T03:49:15.558Z,16.50
2022-08-27T03:51:47.439Z,14.90
2022-08-27T03:54:14.087Z,16.92
2022-08-27T03:56:41.772Z,17.58
2022-08-27T03:59:08.794Z,20.38
2022-08-27T04:01:36.050Z,22.17
2022-08-27T04:04:03.111Z,20.63
2022-08-27T04:06:29.744Z,22.10
2022-08-27T04:08:56.526Z,17.38
2022-08-27T04:11:23.472Z,18.63
2022-08-27T04:13:50.238Z,16.35
2022-08-27T04:16:17.021Z,14.03
2022-08-27T04:18:43.656Z,12.65
2022-08-27T04:21:12.931Z,9.10
2022-08-27T04:23:41.144Z,9.07
2022-08-27T04:26:09.760Z,11.23
2022-08-27T04:28:38.626Z,10.93
2022-08-27T04:31:05.584Z,11.98
2022-08-27T04:33:32.569Z,11.77
2022-08-27T04:36:03.667Z,11.50
2022-08-27T04:38:30.280Z,11.95
2022-08-27T04:41:17.437Z,12.77
2022-08-27T04:43:44.001Z,14.40
2022-08-27T04:46:10.649Z,13.05
2022-08-27T04:48:38.527Z,13.13
2022-08-27T04:51:05.273Z,11.32
2022-08-27T04:53:33.436Z,11.97
2022-08-27T04:56:00.046Z,13.65
2022-08-27T04:58:26.662Z,12.80
2022-08-27T05:00:56.010Z,10.95
2022-08-27T05:03:24.380Z,11.88
2022-08-27T05:05:51.828Z,12.33
2022-08-27T05:08:18.554Z,11.52
2022-08-27T05:10:50.431Z,10.68
2022-08-27T05:13:19.122Z,10.27
2022-08-27T05:15:46.751Z,14.73
2022-08-27T05:18:14.386Z,11.73
2022-08-27T05:20:48.613Z,14.50
2022-08-27T05:23:17.719Z,19.58
2022-08-27T05:25:46.304Z,18.58
2022-08-27T05:28:14.737Z,17.63
2022-08-27T05:30:44.797Z,19.50
2022-08-27T05:33:19.511Z,20.42
2022-08-27T05:35:48.621Z,17.15
2022-08-27T05:38:16.574Z,16.65
2022-08-27T05:40:43.979Z,14.10
2022-08-27T05:43:15.415Z,12.87
2022-08-27T05:45:44.190Z,16.30
2022-08-27T05:48:13.565Z,13.30
2022-08-27T05:50:42.007Z,20.25
2022-08-27T05:53:09.928Z,21.10
2022-08-27T05:55:45.148Z,18.63
2022-08-27T05:58:33.532Z,15.18
2022-08-27T06:01:10.252Z,18.52
2022-08-27T06:03:38.407Z,17.83
2022-08-27T06:06:11.145Z,15.38
2022-08-27T06:08:38.918Z,14.40
2022-08-27T06:11:07.239Z,12.50
2022-08-27T06:13:35.353Z,14.38
2022-08-27T06:16:06.790Z,13.20
2022-08-27T06:18:35.307Z,10.13
2022-08-27T06:21:02.178Z,11.33
2022-08-27T06:23:29.686Z,14.80
2022-08-27T06:25:57.535Z,14.20
2022-08-27T06:28:29.702Z,12.18
2022-08-27T06:31:04.669Z,8.48
2022-08-27T06:33:31.551Z,9.80
2022-08-27T06:36:02.068Z,9.40
2022-08-27T06:38:29.240Z,9.23
2022-08-27T06:40:56.596Z,9.32
2022-08-27T06:43:25.190Z,11.57
2022-08-27T06:45:53.499Z,9.70
2022-08-27T06:48:20.244Z,6.75
2022-08-27T06:50:47.391Z,6.80
2022-08-27T06:53:14.534Z,8.40
2022-08-27T06:55:47.560Z,8.20
2022-08-27T06:58:15.603Z,7.37
2022-08-27T07:00:46.088Z,6.50
2022-08-27T07:03:15.461Z,5.60
2022-08-27T07:05:42.069Z,8.25
2022-08-27T07:08:10.303Z,5.15
2022-08-27T07:10:37.997Z,6.03
2022-08-27T07:13:05.151Z,5.57
2022-08-27T07:15:32.982Z,5.22
2022-08-27T07:18:01.939Z,6.88
2022-08-27T07:20:32.222Z,4.32
2022-08-27T07:23:00.939Z,6.57
2022-08-27T07:25:27.699Z,7.78
2022-08-27T07:27:54.295Z,8.63
2022-08-27T07:30:21.069Z,5.13
2022-08-27T07:32:48.763Z,4.10
2022-08-27T07:35:15.350Z,7.03
2022-08-27T07:37:42.609Z,8.18
2022-08-27T07:40:13.031Z,4.67
2022-08-27T07:43:00.647Z,5.03
2022-08-27T07:45:29.730Z,5.25
2022-08-27T07:47:56.423Z,5.95
2022-08-27T07:50:23.679Z,5.93
2022-08-27T07:52:51.441Z,4.63
2022-08-27T07:55:18.847Z,3.17
2022-08-27T07:57:45.512Z,6.45
2022-08-27T08:00:13.189Z,5.72
2022-08-27T08:02:42.197Z,6.25
2022-08-27T08:05:10.134Z,5.33
2022-08-27T08:07:38.561Z,3.70
2022-08-27T08:10:07.889Z,5.65
2022-08-27T08:12:39.468Z,4.75
2022-08-27T08:15:08.840Z,5.43
2022-08-27T08:17:35.954Z,5.50
2022-08-27T08:20:31.154Z,4.72
2022-08-27T08:22:51.573Z,6.13
2022-08-27T08:25:18.318Z,7.57
2022-08-27T08:27:45.209Z,3.83
2022-08-27T08:30:12.239Z,7.13
2022-08-27T08:32:39.296Z,8.88
2022-08-27T08:35:08.077Z,6.88
2022-08-27T08:37:35.162Z,2.67
2022-08-27T08:40:02.668Z,6.78
2022-08-27T08:42:51.376Z,5.73
2022-08-27T08:45:22.828Z,5.60
2022-08-27T08:48:04.421Z,4.63
2022-08-27T08:50:49.892Z,4.57
2022-08-27T08:53:24.273Z,6.47
2022-08-27T08:55:59.173Z,5.27
2022-08-27T08:58:47.636Z,4.70
2022-08-27T09:01:18.629Z,5.32
2022-08-27T09:03:54.771Z,5.53
2022-08-27T09:06:32.300Z,5.38
2022-08-27T09:09:08.401Z,4.60
2022-08-27T09:11:46.631Z,9.52
2022-08-27T09:14:26.878Z,5.93
2022-08-27T09:16:56.371Z,6.88
2022-08-27T09:19:24.819Z,5.03
2022-08-27T09:22:01.743Z,6.15
2022-08-27T09:24:36.088Z,3.50
2022-08-27T09:27:02.811Z,3.08
2022-08-27T09:29:29.971Z,6.60
2022-08-27T09:32:00.246Z,3.85
2022-08-27T09:34:35.198Z,5.30
2022-08-27T09:37:15.345Z,4.40
2022-08-27T09:40:22.953Z,3.92
2022-08-27T09:43:22.749Z,4.95
2022-08-27T09:45:55.439Z,7.03
2022-08-27T09:48:26.716Z,7.22
2022-08-27T09:51:27.476Z,3.83
2022-08-27T09:53:56.163Z,6.40
2022-08-27T09:56:33.331Z,5.75
2022-08-27T09:59:22.785Z,7.72
2022-08-27T10:01:51.589Z,4.30
2022-08-27T10:04:38.084Z,4.97
2022-08-27T10:07:42.028Z,4.53
2022-08-27T10:10:43.240Z,6.85
2022-08-27T10:13:21.824Z,4.53
2022-08-27T10:16:06.521Z,7.68
2022-08-27T10:18:59.016Z,8.00
2022-08-27T10:21:49.937Z,7.53
2022-08-27T10:25:05.780Z,5.80
2022-08-27T10:28:01.474Z,4.97
2022-08-27T10:30:52.641Z,4.22
2022-08-27T10:33:23.387Z,7.77
2022-08-27T10:36:04.319Z,7.10
2022-08-27T10:38:49.805Z,6.40
2022-08-27T10:41:25.290Z,9.18
2022-08-27T10:44:39.824Z,6.97
2022-08-27T10:47:09.015Z,4.50
2022-08-27T10:50:00.954Z,6.10
2022-08-27T10:52:46.065Z,5.10
2022-08-27T10:55:23.981Z,7.70
2022-08-27T10:58:35.666Z,5.93
2022-08-27T11:01:05.255Z,3.60
2022-08-27T11:03:33.261Z,5.57
2022-08-27T11:06:07.346Z,4.82
2022-08-27T11:08:49.952Z,5.65
2022-08-27T11:14:40.691Z,5.93
2022-08-27T11:17:20.597Z,4.90
2022-08-27T11:20:07.017Z,6.47
2022-08-27T11:22:42.434Z,5.10
2022-08-27T11:25:13.743Z,6.18
2022-08-27T11:27:41.374Z,4.57
2022-08-27T11:30:11.372Z,7.28
2022-08-27T11:32:46.398Z,6.03
2022-08-27T11:35:23.130Z,5.18
2022-08-27T11:38:17.497Z,5.55
2022-08-27T11:41:09.819Z,6.13
2022-08-27T11:43:37.860Z,6.05
2022-08-27T11:46:08.247Z,7.03
2022-08-27T11:48:40.856Z,5.82
2022-08-27T11:51:15.921Z,10.52
2022-08-27T11:54:01.923Z,5.67
2022-08-27T11:56:32.913Z,6.80
2022-08-27T11:59:10.480Z,5.25
2022-08-27T12:01:38.429Z,4.50
2022-08-27T12:04:21.747Z,4.22
2022-08-27T12:07:04.221Z,6.37
2022-08-27T12:09:53.700Z,7.85
2022-08-27T12:12:54.364Z,4.40
2022-08-27T12:15:50.599Z,3.85
2022-08-27T12:18:54.183Z,6.82
2022-08-27T12:21:23.806Z,5.40
2022-08-27T12:23:51.111Z,5.47
2022-08-27T12:26:26.502Z,4.45
2022-08-27T12:29:18.465Z,5.13
2022-08-27T12:31:48.782Z,7.45
2022-08-27T12:34:23.197Z,6.43
2022-08-27T12:36:52.621Z,5.97
2022-08-27T12:39:26.927Z,5.50
2022-08-27T12:41:55.854Z,4.85
2022-08-27T12:44:33.540Z,6.05
2022-08-27T12:47:05.550Z,6.67
2022-08-27T12:49:57.755Z,8.65
2022-08-27T12:52:58.909Z,8.98
2022-08-27T12:55:40.004Z,8.02
2022-08-27T12:58:34.813Z,7.13
2022-08-27T13:01:36.107Z,6.00
2022-08-27T13:04:18.818Z,6.78
2022-08-27T13:06:58.360Z,5.68
2022-08-27T13:09:37.919Z,4.75
2022-08-27T13:12:14.746Z,9.05
2022-08-27T13:14:41.805Z,4.83
2022-08-27T13:17:11.609Z,7.13
2022-08-27T13:19:59.371Z,6.03
2022-08-27T13:22:38.858Z,5.72
2022-08-27T13:25:18.963Z,4.82
2022-08-27T13:27:59.520Z,7.77
2022-08-27T13:30:35.710Z,9.48
2022-08-27T13:33:05.697Z,6.47
2022-08-27T13:35:32.868Z,10.18
2022-08-27T13:38:01.311Z,4.97
2022-08-27T13:40:34.670Z,5.57
2022-08-27T13:43:09.302Z,8.02
2022-08-27T13:45:38.751Z,5.85
2022-08-27T13:48:06.566Z,5.40
2022-08-27T13:50:36.186Z,6.65
2022-08-27T13:53:27.910Z,5.00
2022-08-27T13:55:56.618Z,5.82
2022-08-27T13:58:27.903Z,3.80
2022-08-27T14:00:56.068Z,6.82
2022-08-27T14:03:25.855Z,12.80
2022-08-27T14:05:53.325Z,5.70
2022-08-27T14:08:20.930Z,5.25
2022-08-27T14:11:02.078Z,4.30
2022-08-27T14:13:31.538Z,4.10
2022-08-27T14:16:00.207Z,4.22
2022-08-27T14:18:57.386Z,5.38
2022-08-27T14:21:19.968Z,4.30
2022-08-27T14:23:46.640Z,5.47
2022-08-27T14:26:13.986Z,5.85
2022-08-27T14:28:42.869Z,5.27
2022-08-27T14:31:09.793Z,9.93
2022-08-27T14:33:36.448Z,6.65
2022-08-27T14:36:03.630Z,5.70
2022-08-27T14:38:32.082Z,5.07
2022-08-27T14:40:58.833Z,5.20
2022-08-27T14:43:25.809Z,6.28
2022-08-27T14:45:54.024Z,5.15
2022-08-27T14:48:28.653Z,3.80
2022-08-27T14:50:56.832Z,4.47
2022-08-27T14:53:23.674Z,4.63
2022-08-27T14:55:52.161Z,5.35
2022-08-27T14:58:19.735Z,8.40
2022-08-27T15:00:46.561Z,4.85
2022-08-27T15:03:13.273Z,4.38
2022-08-27T15:05:40.041Z,5.50
2022-08-27T15:08:07.702Z,4.63
2022-08-27T15:10:39.811Z,6.18
2022-08-27T15:13:06.447Z,6.40
2022-08-27T15:15:33.113Z,6.95
2022-08-27T15:17:59.737Z,5.33
2022-08-27T15:20:26.326Z,5.65
2022-08-27T15:22:53.223Z,6.53
2022-08-27T15:25:21.015Z,4.13
2022-08-27T15:27:47.646Z,4.35
2022-08-27T15:30:15.973Z,4.13
2022-08-27T15:32:46.058Z,5.28
2022-08-27T15:35:15.657Z,4.53
2022-08-27T15:37:43.281Z,4.72
2022-08-27T15:40:11.808Z,3.85
2022-08-27T15:42:38.495Z,7.43
2022-08-27T15:45:06.906Z,3.88
2022-08-27T15:47:34.206Z,4.75
2022-08-27T15:50:00.814Z,4.95
2022-08-27T15:52:40.331Z,6.53
2022-08-27T15:55:16.611Z,5.67
2022-08-27T15:57:43.189Z,3.20
2022-08-27T16:00:10.789Z,3.95
2022-08-27T16:02:37.378Z,5.07
2022-08-27T16:05:04.156Z,4.40
2022-08-27T16:07:30.720Z,4.07
2022-08-27T16:09:57.389Z,5.70
2022-08-27T16:12:27.292Z,3.42
2022-08-27T16:14:55.201Z,6.57
2022-08-27T16:17:22.258Z,4.95
2022-08-27T16:19:49.462Z,3.40
2022-08-27T16:22:16.412Z,5.40
2022-08-27T16:24:43.160Z,3.05
2022-08-27T16:27:09.878Z,6.65
2022-08-27T16:29:36.714Z,6.43
2022-08-27T16:32:04.573Z,6.47
2022-08-27T16:34:32.671Z,4.10
2022-08-27T16:37:00.153Z,4.63
2022-08-27T16:39:31.789Z,3.72
2022-08-27T16:42:00.565Z,4.82
2022-08-27T16:44:27.277Z,4.67
2022-08-27T16:46:53.823Z,5.47
2022-08-27T16:49:38.663Z,2.42
2022-08-27T16:52:06.823Z,5.35
2022-08-27T16:54:34.054Z,6.45
2022-08-27T16:57:01.097Z,6.77
2022-08-27T16:59:27.710Z,6.30
2022-08-27T17:01:55.344Z,4.75
2022-08-27T17:04:29.701Z,4.13
2022-08-27T17:06:58.332Z,4.82
2022-08-27T17:09:25.158Z,7.43
2022-08-27T17:11:57.130Z,4.88
2022-08-27T17:14:24.159Z,4.65
2022-08-27T17:16:51.117Z,3.25
2022-08-27T17:19:18.849Z,7.95
2022-08-27T17:21:45.780Z,7.67
2022-08-27T17:24:12.984Z,6.88
2022-08-27T17:26:40.204Z,10.15
2022-08-27T17:29:06.828Z,4.68
2022-08-27T17:31:37.266Z,5.00
2022-08-27T17:34:05.758Z,5.00
2022-08-27T17:36:33.146Z,6.40
2022-08-27T17:39:00.505Z,5.25
2022-08-27T17:41:34.469Z,3.95
2022-08-27T17:44:12.079Z,4.65
2022-08-27T17:46:38.633Z,3.73
2022-08-27T17:49:05.272Z,5.57
2022-08-27T17:51:31.988Z,7.07
2022-08-27T17:54:01.138Z,6.75
2022-08-27T17:56:29.576Z,7.63
2022-08-27T17:58:56.534Z,5.10
2022-08-27T18:01:30.363Z,8.13
2022-08-27T18:03:58.346Z,7.25
2022-08-27T18:06:26.688Z,7.45
2022-08-27T18:08:53.488Z,8.20
2022-08-27T18:11:20.528Z,8.70
2022-08-27T18:13:54.004Z,6.40
2022-08-27T18:16:21.343Z,7.47
2022-08-27T18:18:48.299Z,5.72
2022-08-27T18:21:24.928Z,9.30
2022-08-27T18:23:51.959Z,7.27
2022-08-27T18:26:21.558Z,6.72
2022-08-27T18:28:49.238Z,7.97
2022-08-27T18:31:18.429Z,5.80
2022-08-27T18:33:45.125Z,6.13
2022-08-27T18:36:12.000Z,4.83
2022-08-27T18:38:38.605Z,3.45
2022-08-27T18:41:06.494Z,5.55
2022-08-27T18:43:35.354Z,5.47
2022-08-27T18:46:03.793Z,6.25
2022-08-27T18:48:30.472Z,8.60
2022-08-27T18:50:59.466Z,6.20
2022-08-27T18:53:28.899Z,4.68
2022-08-27T18:55:56.029Z,7.18
2022-08-27T18:58:22.801Z,5.97
2022-08-27T19:00:53.631Z,3.67
2022-08-27T19:03:26.905Z,8.35
2022-08-27T19:05:54.959Z,7.82
2022-08-27T19:08:23.052Z,7.30
2022-08-27T19:10:49.617Z,8.35
2022-08-27T19:13:16.274Z,6.40
2022-08-27T19:15:47.150Z,7.72
2022-08-27T19:18:13.707Z,7.47
2022-08-27T19:20:40.382Z,6.18
2022-08-27T19:23:06.920Z,3.72
2022-08-27T19:25:33.584Z,4.57
2022-08-27T19:28:00.406Z,8.48
2022-08-27T19:30:27.013Z,4.32
2022-08-27T19:32:54.708Z,5.43
2022-08-27T19:35:23.741Z,5.65
2022-08-27T19:37:53.490Z,7.70
2022-08-27T19:40:22.202Z,9.30
2022-08-27T19:42:49.572Z,6.60
2022-08-27T19:45:16.332Z,8.23
2022-08-27T19:47:50.768Z,8.43
2022-08-27T19:50:17.910Z,5.60
2022-08-27T19:52:44.772Z,8.15
2022-08-27T19:55:14.134Z,7.97
2022-08-27T19:57:42.949Z,6.97
2022-08-27T20:00:11.839Z,10.63
2022-08-27T20:02:38.475Z,6.93
2022-08-27T20:05:22.030Z,4.45
2022-08-27T20:07:51.099Z,7.00
2022-08-27T20:10:19.594Z,8.02
2022-08-27T20:12:48.432Z,7.40
2022-08-27T20:15:15.687Z,6.97
2022-08-27T20:17:42.782Z,5.85
2022-08-27T20:20:10.757Z,6.25
2022-08-27T20:22:39.700Z,5.60
2022-08-27T20:25:06.917Z,10.13
2022-08-27T20:27:33.648Z,6.90
2022-08-27T20:30:00.267Z,9.30
2022-08-27T20:32:29.961Z,9.02
2022-08-27T20:34:57.171Z,5.93
2022-08-27T20:37:24.398Z,7.93
2022-08-27T20:39:52.533Z,5.73
2022-08-27T20:42:20.038Z,4.85
2022-08-27T20:44:47.491Z,10.98
2022-08-27T20:47:15.466Z,5.90
2022-08-27T20:49:44.575Z,7.72
2022-08-27T20:52:12.929Z,7.53
2022-08-27T20:54:39.990Z,5.70
2022-08-27T20:57:08.175Z,4.78
2022-08-27T20:59:53.109Z,7.25
2022-08-27T21:02:25.711Z,6.72
2022-08-27T21:04:53.096Z,6.53
2022-08-27T21:07:21.412Z,7.68
2022-08-27T21:09:57.260Z,7.50
2022-08-27T21:12:28.096Z,5.97
2022-08-27T21:14:56.222Z,5.50
2022-08-27T21:17:26.158Z,5.70
2022-08-27T21:19:52.848Z,6.07
2022-08-27T21:22:20.026Z,7.00
2022-08-27T21:24:47.566Z,5.68
2022-08-27T21:27:15.096Z,6.40
2022-08-27T21:29:41.931Z,8.17
2022-08-27T21:32:09.667Z,6.68
2022-08-27T21:34:36.748Z,8.43
2022-08-27T21:37:04.427Z,10.63
2022-08-27T21:39:32.822Z,7.65
2022-08-27T21:42:00.947Z,9.57
2022-08-27T21:44:28.449Z,7.35
2022-08-27T21:46:55.432Z,8.50
2022-08-27T21:49:22.127Z,7.35
2022-08-27T21:51:48.929Z,5.43
2022-08-27T21:54:15.544Z,7.70
2022-08-27T21:56:42.997Z,9.55
2022-08-27T21:59:09.675Z,6.30
2022-08-27T22:01:36.807Z,10.13
2022-08-27T22:04:03.772Z,8.63
2022-08-27T22:06:30.903Z,8.27
2022-08-27T22:08:57.523Z,7.03
2022-08-27T22:11:25.748Z,10.70
2022-08-27T22:13:53.133Z,9.52
2022-08-27T22:16:19.883Z,7.50
2022-08-27T22:18:46.531Z,12.03
2022-08-27T22:21:13.537Z,7.38
2022-08-27T22:23:42.321Z,8.00
2022-08-27T22:26:12.084Z,10.48
2022-08-27T22:28:38.740Z,10.27
2022-08-27T22:31:07.374Z,6.80
2022-08-27T22:33:34.241Z,7.05
2022-08-27T22:36:00.876Z,8.95
2022-08-27T22:38:27.483Z,7.55
2022-08-27T22:40:54.075Z,8.30
2022-08-27T22:43:20.694Z,7.97
2022-08-27T22:45:47.313Z,8.75
2022-08-27T22:48:14.326Z,11.90
2022-08-27T22:50:41.167Z,8.05
2022-08-27T22:53:08.264Z,8.35
2022-08-27T22:55:35.606Z,8.13
2022-08-27T22:58:02.317Z,8.52
2022-08-27T23:00:32.790Z,7.50
2022-08-27T23:03:01.138Z,7.88
2022-08-27T23:05:32.396Z,9.63
2022-08-27T23:08:11.335Z,6.30
2022-08-27T23:10:38.694Z,9.23
2022-08-27T23:13:05.547Z,12.05
2022-08-27T23:15:32.504Z,12.48
2022-08-27T23:18:00.603Z,10.27
2022-08-27T23:20:27.785Z,10.03
2022-08-27T23:22:54.545Z,9.30
2022-08-27T23:25:43.236Z,13.13
2022-08-27T23:28:14.382Z,12.10
2022-08-27T23:30:42.931Z,9.00
2022-08-27T23:33:09.696Z,10.63
2022-08-27T23:35:36.844Z,10.38
2022-08-27T23:38:03.767Z,6.95
2022-08-27T23:40:30.589Z,8.57
2022-08-27T23:42:57.303Z,9.93
2022-08-27T23:45:26.257Z,11.33
2022-08-27T23:47:53.425Z,9.82
2022-08-27T23:50:23.094Z,8.50
2022-08-27T23:52:59.100Z,17.92
2022-08-27T23:55:25.714Z,10.13
2022-08-27T23:57:57.407Z,10.80
